sensor_id;sensor_type;location;lat;lon;timestamp;pressure;altitude;pressure_sealevel;temperature;humidity
36748;BME280;22716;51.556;5.080;2023-12-20T00:01:13;100949.72;;;6.43;100.00
36748;BME280;22716;51.556;5.080;2023-12-20T00:03:41;100937.50;;;6.35;100.00
36748;BME280;22716;51.556;5.080;2023-12-20T00:06:13;100950.56;;;6.41;100.00
36748;BME280;22716;51.556;5.080;2023-12-20T00:08:41;100949.66;;;6.33;100.00
36748;BME280;22716;51.556;5.080;2023-12-20T00:11:10;100956.59;;;6.35;100.00
36748;BME280;22716;51.556;5.080;2023-12-20T00:13:38;100953.09;;;6.32;100.00
36748;BME280;22716;51.556;5.080;2023-12-20T00:16:07;100946.13;;;6.28;100.00
36748;BME280;22716;51.556;5.080;2023-12-20T00:18:35;100944.41;;;6.30;100.00
36748;BME280;22716;51.556;5.080;2023-12-20T00:21:04;100946.16;;;6.31;100.00
36748;BME280;22716;51.556;5.080;2023-12-20T00:23:35;100939.22;;;6.28;100.00
36748;BME280;22716;51.556;5.080;2023-12-20T00:26:04;100939.19;;;6.27;100.00
36748;BME280;22716;51.556;5.080;2023-12-20T00:28:32;100946.13;;;6.28;100.00
36748;BME280;22716;51.556;5.080;2023-12-20T00:31:01;100940.91;;;6.26;100.00
36748;BME280;22716;51.556;5.080;2023-12-20T00:33:30;100934.81;;;6.24;100.00
36748;BME280;22716;51.556;5.080;2023-12-20T00:35:58;100939.22;;;6.28;100.00
36748;BME280;22716;51.556;5.080;2023-12-20T00:38:28;100932.25;;;6.27;100.00
36748;BME280;22716;51.556;5.080;2023-12-20T00:40:59;100934.81;;;6.24;100.00
36748;BME280;22716;51.556;5.080;2023-12-20T00:43:28;100940.91;;;6.25;100.00
36748;BME280;22716;51.556;5.080;2023-12-20T00:45:57;100942.63;;;6.24;100.00
36748;BME280;22716;51.556;5.080;2023-12-20T00:48:26;100931.34;;;6.24;100.00
36748;BME280;22716;51.556;5.080;2023-12-20T00:50:55;100924.38;;;6.22;100.00
36748;BME280;22716;51.556;5.080;2023-12-20T00:53:24;100920.06;;;6.23;100.00
36748;BME280;22716;51.556;5.080;2023-12-20T00:55:53;100924.41;;;6.26;100.00
36748;BME280;22716;51.556;5.080;2023-12-20T00:58:24;100918.41;;;6.28;100.00
36748;BME280;22716;51.556;5.080;2023-12-20T01:00:53;100933.13;;;6.28;100.00
36748;BME280;22716;51.556;5.080;2023-12-20T01:03:22;100929.66;;;6.29;100.00
36748;BME280;22716;51.556;5.080;2023-12-20T01:05:50;100923.59;;;6.30;100.00
36748;BME280;22716;51.556;5.080;2023-12-20T01:08:19;100914.03;;;6.27;100.00
36748;BME280;22716;51.556;5.080;2023-12-20T01:10:48;100922.72;;;6.28;100.00
36748;BME280;22716;51.556;5.080;2023-12-20T01:13:16;100926.16;;;6.27;100.00
36748;BME280;22716;51.556;5.080;2023-12-20T01:15:47;100926.13;;;6.19;100.00
36748;BME280;22716;51.556;5.080;2023-12-20T01:18:16;100939.13;;;6.19;100.00
36748;BME280;22716;51.556;5.080;2023-12-20T01:20:45;100947.75;;;6.16;100.00
36748;BME280;22716;51.556;5.080;2023-12-20T01:23:13;100938.19;;;6.14;100.00
36748;BME280;22716;51.556;5.080;2023-12-20T01:25:42;100945.16;;;6.16;100.00
36748;BME280;22716;51.556;5.080;2023-12-20T01:28:10;100939.06;;;6.13;100.00
36748;BME280;22716;51.556;5.080;2023-12-20T01:30:39;100930.38;;;6.14;100.00
36748;BME280;22716;51.556;5.080;2023-12-20T01:33:10;100940.78;;;6.14;100.00
36748;BME280;22716;51.556;5.080;2023-12-20T01:35:39;100950.34;;;6.16;100.00
36748;BME280;22716;51.556;5.080;2023-12-20T01:38:08;100944.28;;;6.14;100.00
36748;BME280;22716;51.556;5.080;2023-12-20T01:40:37;100945.13;;;6.10;100.00
36748;BME280;22716;51.556;5.080;2023-12-20T01:43:07;100941.66;;;6.11;100.00
36748;BME280;22716;51.556;5.080;2023-12-20T01:45:37;100943.41;;;6.12;100.00
36748;BME280;22716;51.556;5.080;2023-12-20T01:48:10;100930.38;;;6.14;100.00
36748;BME280;22716;51.556;5.080;2023-12-20T01:50:39;100929.53;;;6.13;100.00
36748;BME280;22716;51.556;5.080;2023-12-20T01:53:10;100932.06;;;6.06;100.00
36748;BME280;22716;51.556;5.080;2023-12-20T01:55:40;100927.72;;;6.06;100.00
36748;BME280;22716;51.556;5.080;2023-12-20T01:58:09;100933.78;;;6.04;100.00
36748;BME280;22716;51.556;5.080;2023-12-20T02:00:40;100930.31;;;6.05;100.00
36748;BME280;22716;51.556;5.080;2023-12-20T02:03:16;100939.00;;;6.07;100.00
36748;BME280;22716;51.556;5.080;2023-12-20T02:05:45;100944.22;;;6.08;100.00
36748;BME280;22716;51.556;5.080;2023-12-20T02:08:15;100943.34;;;6.06;100.00
36748;BME280;22716;51.556;5.080;2023-12-20T02:10:44;100932.09;;;6.07;100.00
36748;BME280;22716;51.556;5.080;2023-12-20T02:13:12;100923.41;;;6.07;100.00
36748;BME280;22716;51.556;5.080;2023-12-20T02:15:41;100930.31;;;6.05;100.00
36748;BME280;22716;51.556;5.080;2023-12-20T02:18:09;100931.19;;;6.04;100.00
36748;BME280;22716;51.556;5.080;2023-12-20T02:20:43;100934.66;;;6.04;100.00
36748;BME280;22716;51.556;5.080;2023-12-20T02:23:15;100935.47;;;6.00;100.00
36748;BME280;22716;51.556;5.080;2023-12-20T02:25:43;100932.91;;;6.03;100.00
36748;BME280;22716;51.556;5.080;2023-12-20T02:28:12;100932.88;;;6.00;100.00
36748;BME280;22716;51.556;5.080;2023-12-20T02:30:41;100937.25;;;6.04;100.00
36748;BME280;22716;51.556;5.080;2023-12-20T02:33:12;100938.97;;;6.05;100.00
36748;BME280;22716;51.556;5.080;2023-12-20T02:35:40;100944.25;;;6.10;100.00
36748;BME280;22716;51.556;5.080;2023-12-20T02:38:09;100935.56;;;6.09;100.00
36748;BME280;22716;51.556;5.080;2023-12-20T02:40:40;100936.44;;;6.10;100.00
36748;BME280;22716;51.556;5.080;2023-12-20T02:43:09;100931.25;;;6.11;100.00
36748;BME280;22716;51.556;5.080;2023-12-20T02:45:37;100930.34;;;6.06;100.00
36748;BME280;22716;51.556;5.080;2023-12-20T02:48:07;100922.53;;;6.08;100.00
36748;BME280;22716;51.556;5.080;2023-12-20T02:50:35;100924.25;;;6.04;100.00
36748;BME280;22716;51.556;5.080;2023-12-20T02:53:04;100935.53;;;6.06;100.00
36748;BME280;22716;51.556;5.080;2023-12-20T02:55:33;100923.38;;;6.04;100.00
36748;BME280;22716;51.556;5.080;2023-12-20T02:58:04;100935.50;;;6.03;100.00
36748;BME280;22716;51.556;5.080;2023-12-20T03:00:32;100925.94;;;6.02;100.00
36748;BME280;22716;51.556;5.080;2023-12-20T03:03:01;100928.56;;;6.05;100.00
36748;BME280;22716;51.556;5.080;2023-12-20T03:05:29;100920.78;;;6.04;100.00
36748;BME280;22716;51.556;5.080;2023-12-20T03:07:58;100925.97;;;6.05;100.00
36748;BME280;22716;51.556;5.080;2023-12-20T03:10:26;100926.00;;;6.07;100.00
36748;BME280;22716;51.556;5.080;2023-12-20T03:12:55;100911.25;;;6.04;100.00
36748;BME280;22716;51.556;5.080;2023-12-20T03:15:26;100912.13;;;6.08;100.00
36748;BME280;22716;51.556;5.080;2023-12-20T03:17:55;100898.25;;;6.04;100.00
36748;BME280;22716;51.556;5.080;2023-12-20T03:20:24;100905.22;;;6.11;100.00
36748;BME280;22716;51.556;5.080;2023-12-20T03:22:53;100895.72;;;6.15;100.00
36748;BME280;22716;51.556;5.080;2023-12-20T03:25:21;100895.72;;;6.15;100.00
36748;BME280;22716;51.556;5.080;2023-12-20T03:27:50;100901.84;;;6.18;100.00
36748;BME280;22716;51.556;5.080;2023-12-20T03:30:19;100895.78;;;6.21;100.00
36748;BME280;22716;51.556;5.080;2023-12-20T03:32:50;100896.66;;;6.22;100.00
36748;BME280;22716;51.556;5.080;2023-12-20T03:35:18;100894.94;;;6.22;100.00
36748;BME280;22716;51.556;5.080;2023-12-20T03:37:47;100890.59;;;6.24;100.00
36748;BME280;22716;51.556;5.080;2023-12-20T03:40:16;100878.41;;;6.20;100.00
36748;BME280;22716;51.556;5.080;2023-12-20T03:42:44;100896.69;;;6.29;100.00
36748;BME280;22716;51.556;5.080;2023-12-20T03:45:13;100881.97;;;6.31;100.00
36748;BME280;22716;51.556;5.080;2023-12-20T03:47:41;100883.75;;;6.34;100.00
36748;BME280;22716;51.556;5.080;2023-12-20T03:50:13;100900.25;;;6.39;100.00
36748;BME280;22716;51.556;5.080;2023-12-20T03:52:41;100898.50;;;6.36;100.00
36748;BME280;22716;51.556;5.080;2023-12-20T03:55:10;100907.22;;;6.44;100.00
36748;BME280;22716;51.556;5.080;2023-12-20T03:57:38;100896.81;;;6.43;100.00
36748;BME280;22716;51.556;5.080;2023-12-20T04:00:08;100894.25;;;6.46;100.00
36748;BME280;22716;51.556;5.080;2023-12-20T04:02:37;100898.59;;;6.50;100.00
36748;BME280;22716;51.556;5.080;2023-12-20T04:05:07;100907.28;;;6.50;100.00
36748;BME280;22716;51.556;5.080;2023-12-20T04:07:38;100892.50;;;6.49;100.00
36748;BME280;22716;51.556;5.080;2023-12-20T04:10:08;100898.59;;;6.50;100.00
36748;BME280;22716;51.556;5.080;2023-12-20T04:12:36;100899.47;;;6.52;100.00
36748;BME280;22716;51.556;5.080;2023-12-20T04:15:06;100904.69;;;6.55;100.00
36748;BME280;22716;51.556;5.080;2023-12-20T04:17:35;100903.88;;;6.57;100.00
36748;BME280;22716;51.556;5.080;2023-12-20T04:20:05;100893.34;;;6.47;100.00
36748;BME280;22716;51.556;5.080;2023-12-20T04:22:34;100905.59;;;6.57;100.00
36748;BME280;22716;51.556;5.080;2023-12-20T04:25:06;100908.19;;;6.58;100.00
36748;BME280;22716;51.556;5.080;2023-12-20T04:27:35;100905.59;;;6.57;100.00
36748;BME280;22716;51.556;5.080;2023-12-20T04:30:05;100915.13;;;6.58;100.00
36748;BME280;22716;51.556;5.080;2023-12-20T04:32:34;100913.41;;;6.57;100.00
36748;BME280;22716;51.556;5.080;2023-12-20T04:35:04;100913.44;;;6.60;100.00
36748;BME280;22716;51.556;5.080;2023-12-20T04:37:34;100906.50;;;6.60;100.00
36748;BME280;22716;51.556;5.080;2023-12-20T04:40:06;100912.53;;;6.56;100.00
36748;BME280;22716;51.556;5.080;2023-12-20T04:42:35;100903.81;;;6.53;100.00
36748;BME280;22716;51.556;5.080;2023-12-20T04:45:04;100902.06;;;6.46;100.00
36748;BME280;22716;51.556;5.080;2023-12-20T04:47:33;100922.88;;;6.52;100.00
36748;BME280;22716;51.556;5.080;2023-12-20T04:50:03;100910.72;;;6.49;100.00
36748;BME280;22716;51.556;5.080;2023-12-20T04:52:31;100909.03;;;6.53;100.00
36748;BME280;22716;51.556;5.080;2023-12-20T04:55:00;100916.84;;;6.51;100.00
36748;BME280;22716;51.556;5.080;2023-12-20T04:57:31;100911.59;;;6.50;100.00
36748;BME280;22716;51.556;5.080;2023-12-20T05:00:00;100901.19;;;6.50;100.00
36748;BME280;22716;51.556;5.080;2023-12-20T05:02:28;100902.94;;;6.51;100.00
36748;BME280;22716;51.556;5.080;2023-12-20T05:04:57;100896.84;;;6.52;100.00
36748;BME280;22716;51.556;5.080;2023-12-20T05:07:26;100885.56;;;6.45;100.00
36748;BME280;22716;51.556;5.080;2023-12-20T05:09:54;100897.75;;;6.51;100.00
36748;BME280;22716;51.556;5.080;2023-12-20T05:12:23;100888.19;;;6.51;100.00
36748;BME280;22716;51.556;5.080;2023-12-20T05:14:54;100887.34;;;6.54;100.00
36748;BME280;22716;51.556;5.080;2023-12-20T05:17:23;100890.81;;;6.51;100.00
36748;BME280;22716;51.556;5.080;2023-12-20T05:19:52;100882.97;;;6.48;100.00
36748;BME280;22716;51.556;5.080;2023-12-20T05:22:20;100881.22;;;6.43;100.00
36748;BME280;22716;51.556;5.080;2023-12-20T05:24:49;100875.97;;;6.37;100.00
36748;BME280;22716;51.556;5.080;2023-12-20T05:27:17;100888.13;;;6.39;100.00
36748;BME280;22716;51.556;5.080;2023-12-20T05:29:46;100889.78;;;6.33;100.00
36748;BME280;22716;51.556;5.080;2023-12-20T05:32:18;100888.91;;;6.31;100.00
36748;BME280;22716;51.556;5.080;2023-12-20T05:34:46;100893.19;;;6.26;100.00
36748;BME280;22716;51.556;5.080;2023-12-20T05:37:15;100892.31;;;6.24;100.00
36748;BME280;22716;51.556;5.080;2023-12-20T05:39:43;100891.44;;;6.18;100.00
36748;BME280;22716;51.556;5.080;2023-12-20T05:42:12;100884.44;;;6.13;100.00
36748;BME280;22716;51.556;5.080;2023-12-20T05:44:41;100892.19;;;6.08;100.00
36748;BME280;22716;51.556;5.080;2023-12-20T05:47:09;100893.88;;;6.02;100.00
36748;BME280;22716;51.556;5.080;2023-12-20T05:49:40;100875.56;;;5.90;100.00
36748;BME280;22716;51.556;5.080;2023-12-20T05:52:09;100899.00;;;5.94;100.00
36748;BME280;22716;51.556;5.080;2023-12-20T05:54:37;100896.38;;;5.90;100.00
36748;BME280;22716;51.556;5.080;2023-12-20T05:57:06;100895.41;;;5.83;100.00
36748;BME280;22716;51.556;5.080;2023-12-20T05:59:34;100905.81;;;5.83;100.00
36748;BME280;22716;51.556;5.080;2023-12-20T06:02:03;100914.50;;;5.84;100.00
36748;BME280;22716;51.556;5.080;2023-12-20T06:04:32;100914.50;;;5.84;100.00
36748;BME280;22716;51.556;5.080;2023-12-20T06:07:03;100906.66;;;5.82;100.00
36748;BME280;22716;51.556;5.080;2023-12-20T06:09:29;100910.13;;;5.81;100.00
36748;BME280;22716;51.556;5.080;2023-12-20T06:11:58;100904.03;;;5.78;100.00
36748;BME280;22716;51.556;5.080;2023-12-20T06:14:26;100900.63;;;5.83;100.00
36748;BME280;22716;51.556;5.080;2023-12-20T06:16:56;100896.25;;;5.82;100.00
36748;BME280;22716;51.556;5.080;2023-12-20T06:19:24;100887.59;;;5.83;100.00
36748;BME280;22716;51.556;5.080;2023-12-20T06:21:53;100886.69;;;5.78;100.00
36748;BME280;22716;51.556;5.080;2023-12-20T06:24:24;100893.56;;;5.73;100.00
36748;BME280;22716;51.556;5.080;2023-12-20T06:26:53;100889.22;;;5.69;100.00
36748;BME280;22716;51.556;5.080;2023-12-20T06:29:22;100887.47;;;5.68;100.00
36748;BME280;22716;51.556;5.080;2023-12-20T06:31:51;100873.50;;;5.57;100.00
36748;BME280;22716;51.556;5.080;2023-12-20T06:34:20;100890.03;;;5.66;100.00
36748;BME280;22716;51.556;5.080;2023-12-20T06:36:48;100895.22;;;5.65;100.00
36748;BME280;22716;51.556;5.080;2023-12-20T06:39:17;100889.16;;;5.63;100.00
36748;BME280;22716;51.556;5.080;2023-12-20T06:41:48;100881.31;;;5.60;100.00
36748;BME280;22716;51.556;5.080;2023-12-20T06:44:17;100888.28;;;5.62;100.00
36748;BME280;22716;51.556;5.080;2023-12-20T06:46:45;100878.69;;;5.57;100.00
36748;BME280;22716;51.556;5.080;2023-12-20T06:49:14;100890.03;;;5.65;100.00
36748;BME280;22716;51.556;5.080;2023-12-20T06:51:42;100882.22;;;5.65;100.00
36748;BME280;22716;51.556;5.080;2023-12-20T06:54:11;100892.66;;;5.68;100.00
36748;BME280;22716;51.556;5.080;2023-12-20T06:56:39;100897.84;;;5.68;100.00
36748;BME280;22716;51.556;5.080;2023-12-20T06:59:11;100897.88;;;5.71;100.00
36748;BME280;22716;51.556;5.080;2023-12-20T07:01:39;100877.97;;;5.72;100.00
36748;BME280;22716;51.556;5.080;2023-12-20T07:04:08;100886.63;;;5.71;100.00
36748;BME280;22716;51.556;5.080;2023-12-20T07:06:37;100889.28;;;5.75;100.00
36748;BME280;22716;51.556;5.080;2023-12-20T07:09:05;100891.88;;;5.75;100.00
36748;BME280;22716;51.556;5.080;2023-12-20T07:11:34;100889.25;;;5.72;100.00
36748;BME280;22716;51.556;5.080;2023-12-20T07:14:03;100887.53;;;5.74;100.00
36748;BME280;22716;51.556;5.080;2023-12-20T07:16:34;100880.56;;;5.72;100.00
36748;BME280;22716;51.556;5.080;2023-12-20T07:19:03;100886.66;;;5.77;100.00
36748;BME280;22716;51.556;5.080;2023-12-20T07:21:32;100895.34;;;5.79;100.00
36748;BME280;22716;51.556;5.080;2023-12-20T07:24:00;100899.72;;;5.81;100.00
36748;BME280;22716;51.556;5.080;2023-12-20T07:26:29;100886.75;;;5.81;100.00
36748;BME280;22716;51.556;5.080;2023-12-20T07:28:57;100886.72;;;5.84;100.00
36748;BME280;22716;51.556;5.080;2023-12-20T07:31:27;100899.78;;;5.86;100.00
36748;BME280;22716;51.556;5.080;2023-12-20T07:33:59;100902.44;;;5.90;100.00
36748;BME280;22716;51.556;5.080;2023-12-20T07:36:27;100905.03;;;5.90;100.00
36748;BME280;22716;51.556;5.080;2023-12-20T07:38:56;100911.97;;;5.91;100.00
36748;BME280;22716;51.556;5.080;2023-12-20T07:41:24;100901.63;;;5.93;100.00
36748;BME280;22716;51.556;5.080;2023-12-20T07:43:53;100897.28;;;5.95;100.00
36748;BME280;22716;51.556;5.080;2023-12-20T07:46:22;100879.94;;;5.94;100.00
36748;BME280;22716;51.556;5.080;2023-12-20T07:48:51;100888.63;;;5.97;100.00
36748;BME280;22716;51.556;5.080;2023-12-20T07:51:22;100897.31;;;5.99;100.00
36748;BME280;22716;51.556;5.080;2023-12-20T07:53:51;100899.03;;;5.99;100.00
36748;BME280;22716;51.556;5.080;2023-12-20T07:56:20;100898.22;;;6.03;100.00
36748;BME280;22716;51.556;5.080;2023-12-20T07:58:49;100900.84;;;6.04;100.00
36748;BME280;22716;51.556;5.080;2023-12-20T08:01:18;100900.84;;;6.06;100.00
36748;BME280;22716;51.556;5.080;2023-12-20T08:03:48;100895.63;;;6.01;100.00
36748;BME280;22716;51.556;5.080;2023-12-20T08:06:16;100901.75;;;6.09;100.00
36748;BME280;22716;51.556;5.080;2023-12-20T08:08:48;100908.72;;;6.10;100.00
36748;BME280;22716;51.556;5.080;2023-12-20T08:11:16;100905.25;;;6.13;100.00
36748;BME280;22716;51.556;5.080;2023-12-20T08:13:46;100904.41;;;6.15;100.00
36748;BME280;22716;51.556;5.080;2023-12-20T08:16:14;100897.47;;;6.17;100.00
36748;BME280;22716;51.556;5.080;2023-12-20T08:18:43;100907.03;;;6.18;100.00
36748;BME280;22716;51.556;5.080;2023-12-20T08:21:11;100892.28;;;6.20;100.00
36748;BME280;22716;51.556;5.080;2023-12-20T08:23:40;100900.16;;;6.25;100.00
36748;BME280;22716;51.556;5.080;2023-12-20T08:26:11;100898.44;;;6.27;100.00
36748;BME280;22716;51.556;5.080;2023-12-20T08:28:40;100887.13;;;6.22;100.00
36748;BME280;22716;51.556;5.080;2023-12-20T08:31:13;100909.72;;;6.29;100.00
36748;BME280;22716;51.556;5.080;2023-12-20T08:33:44;100908.00;;;6.34;100.00
36748;BME280;22716;51.556;5.080;2023-12-20T08:36:13;100896.78;;;6.37;100.00
36748;BME280;22716;51.556;5.080;2023-12-20T08:38:43;100902.84;;;6.39;100.00
36748;BME280;22716;51.556;5.080;2023-12-20T08:41:15;100902.03;;;6.43;100.00
36748;BME280;22716;51.556;5.080;2023-12-20T08:43:44;100894.22;;;6.43;100.00
36748;BME280;22716;51.556;5.080;2023-12-20T08:46:14;100895.94;;;6.42;100.00
36748;BME280;22716;51.556;5.080;2023-12-20T08:48:43;100894.25;;;6.46;100.00
36748;BME280;22716;51.556;5.080;2023-12-20T08:51:13;100885.56;;;6.50;100.00
36748;BME280;22716;51.556;5.080;2023-12-20T08:53:41;100885.63;;;6.54;100.00
36748;BME280;22716;51.556;5.080;2023-12-20T08:56:10;100882.16;;;6.58;100.00
36748;BME280;22716;51.556;5.080;2023-12-20T08:58:42;100882.19;;;6.64;100.00
36748;BME280;22716;51.556;5.080;2023-12-20T09:01:10;100892.63;;;6.66;100.00
36748;BME280;22716;51.556;5.080;2023-12-20T09:03:39;100880.50;;;6.71;100.00
36748;BME280;22716;51.556;5.080;2023-12-20T09:06:07;100885.72;;;6.72;100.00
36748;BME280;22716;51.556;5.080;2023-12-20T09:08:36;100895.28;;;6.76;100.00
36748;BME280;22716;51.556;5.080;2023-12-20T09:11:05;100897.91;;;6.80;100.00
36748;BME280;22716;51.556;5.080;2023-12-20T09:13:33;100895.31;;;6.83;100.00
36748;BME280;22716;51.556;5.080;2023-12-20T09:16:05;100891.00;;;6.85;100.00
36748;BME280;22716;51.556;5.080;2023-12-20T09:18:34;100893.63;;;6.89;100.00
36748;BME280;22716;51.556;5.080;2023-12-20T09:21:02;100900.59;;;6.93;100.00
36748;BME280;22716;51.556;5.080;2023-12-20T09:23:31;100909.28;;;6.97;100.00
36748;BME280;22716;51.556;5.080;2023-12-20T09:26:00;100900.63;;;6.99;100.00
36748;BME280;22716;51.556;5.080;2023-12-20T09:28:28;100904.97;;;7.00;100.00
36748;BME280;22716;51.556;5.080;2023-12-20T09:31:06;100887.63;;;7.04;100.00
36748;BME280;22716;51.556;5.080;2023-12-20T09:33:34;100887.63;;;7.05;100.00
36748;BME280;22716;51.556;5.080;2023-12-20T09:36:03;100878.09;;;7.04;100.00
36748;BME280;22716;51.556;5.080;2023-12-20T09:38:32;100886.78;;;7.11;100.00
36748;BME280;22716;51.556;5.080;2023-12-20T09:41:01;100893.72;;;7.13;100.00
36748;BME280;22716;51.556;5.080;2023-12-20T09:43:30;100892.00;;;7.17;100.00
36748;BME280;22716;51.556;5.080;2023-12-20T09:46:00;100885.94;;;7.18;100.00
36748;BME280;22716;51.556;5.080;2023-12-20T09:48:34;100884.19;;;7.17;100.00
36748;BME280;22716;51.556;5.080;2023-12-20T09:51:04;100879.84;;;7.13;100.00
36748;BME280;22716;51.556;5.080;2023-12-20T09:53:33;100878.97;;;7.12;100.00
36748;BME280;22716;51.556;5.080;2023-12-20T09:56:06;100878.13;;;7.15;100.00
36748;BME280;22716;51.556;5.080;2023-12-20T09:58:37;100882.47;;;7.16;100.00
36748;BME280;22716;51.556;5.080;2023-12-20T10:01:06;100886.78;;;7.12;100.00
36748;BME280;22716;51.556;5.080;2023-12-20T10:03:39;100885.94;;;7.15;100.00
36748;BME280;22716;51.556;5.080;2023-12-20T10:06:11;100877.28;;;7.19;100.00
36748;BME280;22716;51.556;5.080;2023-12-20T10:08:39;100880.75;;;7.18;100.00
36748;BME280;22716;51.556;5.080;2023-12-20T10:11:08;100878.13;;;7.19;100.00
36748;BME280;22716;51.556;5.080;2023-12-20T10:13:39;100881.59;;;7.20;100.00
36748;BME280;22716;51.556;5.080;2023-12-20T10:16:09;100881.63;;;7.21;100.00
36748;BME280;22716;51.556;5.080;2023-12-20T10:18:40;100885.97;;;7.24;100.00
36748;BME280;22716;51.556;5.080;2023-12-20T10:21:08;100899.00;;;7.24;100.00
36748;BME280;22716;51.556;5.080;2023-12-20T10:23:38;100891.19;;;7.25;100.00
36748;BME280;22716;51.556;5.080;2023-12-20T10:26:07;100901.63;;;7.30;100.00
36748;BME280;22716;51.556;5.080;2023-12-20T10:28:38;100895.53;;;7.29;100.00
36748;BME280;22716;51.556;5.080;2023-12-20T10:31:06;100884.25;;;7.29;100.00
36748;BME280;22716;51.556;5.080;2023-12-20T10:33:35;100878.19;;;7.30;100.00
36748;BME280;22716;51.556;5.080;2023-12-20T10:36:07;100879.03;;;7.32;100.00
36748;BME280;22716;51.556;5.080;2023-12-20T10:38:39;100875.56;;;7.31;100.00
36748;BME280;22716;51.556;5.080;2023-12-20T10:41:11;100878.19;;;7.34;100.00
36748;BME280;22716;51.556;5.080;2023-12-20T10:43:43;100875.59;;;7.36;100.00
36748;BME280;22716;51.556;5.080;2023-12-20T10:46:12;100872.13;;;7.39;100.00
36748;BME280;22716;51.556;5.080;2023-12-20T10:48:42;100870.41;;;7.39;100.00
36748;BME280;22716;51.556;5.080;2023-12-20T10:51:17;100859.09;;;7.39;100.00
36748;BME280;22716;51.556;5.080;2023-12-20T10:53:47;100850.41;;;7.40;100.00
36748;BME280;22716;51.556;5.080;2023-12-20T10:56:18;100859.97;;;7.44;100.00
36748;BME280;22716;51.556;5.080;2023-12-20T10:58:48;100854.78;;;7.45;100.00
36748;BME280;22716;51.556;5.080;2023-12-20T11:01:18;100850.41;;;7.49;100.00
36748;BME280;22716;51.556;5.080;2023-12-20T11:03:49;100846.06;;;7.49;100.00
36748;BME280;22716;51.556;5.080;2023-12-20T11:06:35;100853.91;;;7.51;100.00
36748;BME280;22716;51.556;5.080;2023-12-20T11:09:12;100840.84;;;7.49;100.00
36748;BME280;22716;51.556;5.080;2023-12-20T11:12:02;100834.75;;;7.49;100.00
36748;BME280;22716;51.556;5.080;2023-12-20T11:14:40;100839.13;;;7.53;100.00
36748;BME280;22716;51.556;5.080;2023-12-20T11:17:11;100839.16;;;7.54;100.00
36748;BME280;22716;51.556;5.080;2023-12-20T11:20:12;100817.41;;;7.51;100.00
36748;BME280;22716;51.556;5.080;2023-12-20T11:22:54;100831.31;;;7.51;100.00
36748;BME280;22716;51.556;5.080;2023-12-20T11:25:23;100826.97;;;7.47;100.00
36748;BME280;22716;51.556;5.080;2023-12-20T11:28:09;100831.31;;;7.56;100.00
36748;BME280;22716;51.556;5.080;2023-12-20T11:30:42;100833.06;;;7.57;100.00
36748;BME280;22716;51.556;5.080;2023-12-20T11:33:10;100829.56;;;7.58;100.00
36748;BME280;22716;51.556;5.080;2023-12-20T11:35:39;100827.84;;;7.63;100.00
36748;BME280;22716;51.556;5.080;2023-12-20T11:38:13;100815.69;;;7.62;100.00
36748;BME280;22716;51.556;5.080;2023-12-20T11:40:42;100824.38;;;7.64;100.00
36748;BME280;22716;51.556;5.080;2023-12-20T11:43:11;100817.44;;;7.66;100.00
36748;BME280;22716;51.556;5.080;2023-12-20T11:45:49;100811.31;;;7.64;100.00
36748;BME280;22716;51.556;5.080;2023-12-20T11:48:19;100814.81;;;7.66;100.00
36748;BME280;22716;51.556;5.080;2023-12-20T11:50:48;100812.22;;;7.72;100.00
36748;BME280;22716;51.556;5.080;2023-12-20T11:53:19;100800.03;;;7.65;100.00
36748;BME280;22716;51.556;5.080;2023-12-20T11:55:48;100804.38;;;7.73;100.00
36748;BME280;22716;51.556;5.080;2023-12-20T11:58:16;100793.97;;;7.75;100.00
36748;BME280;22716;51.556;5.080;2023-12-20T12:00:45;100794.84;;;7.77;100.00
36748;BME280;22716;51.556;5.080;2023-12-20T12:03:15;100791.34;;;7.79;100.00
36748;BME280;22716;51.556;5.080;2023-12-20T12:05:47;100796.56;;;7.84;100.00
36748;BME280;22716;51.556;5.080;2023-12-20T12:08:19;100775.69;;;7.78;100.00
36748;BME280;22716;51.556;5.080;2023-12-20T12:10:48;100793.97;;;7.88;100.00
36748;BME280;22716;51.556;5.080;2023-12-20T12:13:17;100776.56;;;7.87;100.00
36748;BME280;22716;51.556;5.080;2023-12-20T12:15:46;100781.78;;;7.90;100.00
36748;BME280;22716;51.556;5.080;2023-12-20T12:18:15;100789.59;;;7.94;100.00
36748;BME280;22716;51.556;5.080;2023-12-20T12:20:44;100791.34;;;8.01;100.00
36748;BME280;22716;51.556;5.080;2023-12-20T12:23:13;100782.63;;;8.02;100.00
36748;BME280;22716;51.556;5.080;2023-12-20T12:25:45;100781.78;;;8.04;100.00
36748;BME280;22716;51.556;5.080;2023-12-20T12:28:14;100779.19;;;8.04;100.00
36748;BME280;22716;51.556;5.080;2023-12-20T12:30:42;100782.63;;;8.05;100.00
36748;BME280;22716;51.556;5.080;2023-12-20T12:33:11;100773.94;;;8.07;100.00
36748;BME280;22716;51.556;5.080;2023-12-20T12:35:40;100767.84;;;8.05;100.00
36748;BME280;22716;51.556;5.080;2023-12-20T12:38:09;100777.41;;;8.12;100.00
36748;BME280;22716;51.556;5.080;2023-12-20T12:40:37;100773.91;;;8.13;100.00
36748;BME280;22716;51.556;5.080;2023-12-20T12:43:08;100766.09;;;8.09;100.00
36748;BME280;22716;51.556;5.080;2023-12-20T12:45:41;100773.06;;;8.14;100.00
36748;BME280;22716;51.556;5.080;2023-12-20T12:48:10;100773.06;;;8.14;100.00
36748;BME280;22716;51.556;5.080;2023-12-20T12:50:38;100770.44;;;8.14;100.00
36748;BME280;22716;51.556;5.080;2023-12-20T12:53:07;100753.91;;;8.11;100.00
36748;BME280;22716;51.556;5.080;2023-12-20T12:55:35;100753.94;;;8.15;100.00
36748;BME280;22716;51.556;5.080;2023-12-20T12:58:04;100747.81;;;8.16;100.00
36748;BME280;22716;51.556;5.080;2023-12-20T13:00:36;100747.81;;;8.16;100.00
36748;BME280;22716;51.556;5.080;2023-12-20T13:03:04;100758.25;;;8.16;100.00